sensor_id;sensor_type;location;lat;lon;timestamp;temperature;humidity
67557;DHT22;54387;53.526;49.300;2023-07-16T00:00:10;16.60;66.00
67557;DHT22;54387;53.526;49.300;2023-07-16T00:02:38;16.70;66.10
67557;DHT22;54387;53.526;49.300;2023-07-16T00:05:05;16.70;66.10
67557;DHT22;54387;53.526;49.300;2023-07-16T00:07:32;16.70;66.10
67557;DHT22;54387;53.526;49.300;2023-07-16T00:09:58;16.70;66.10
67557;DHT22;54387;53.526;49.300;2023-07-16T00:12:24;16.70;66.00
67557;DHT22;54387;53.526;49.300;2023-07-16T00:14:50;16.70;66.00
67557;DHT22;54387;53.526;49.300;2023-07-16T00:17:16;16.80;66.10
67557;DHT22;54387;53.526;49.300;2023-07-16T00:19:42;16.80;66.10
67557;DHT22;54387;53.526;49.300;2023-07-16T00:22:09;16.80;66.20
67557;DHT22;54387;53.526;49.300;2023-07-16T00:24:35;16.70;66.20
67557;DHT22;54387;53.526;49.300;2023-07-16T00:27:01;16.80;66.30
67557;DHT22;54387;53.526;49.300;2023-07-16T00:29:28;16.80;66.40
67557;DHT22;54387;53.526;49.300;2023-07-16T00:31:54;16.80;66.40
67557;DHT22;54387;53.526;49.300;2023-07-16T00:34:20;16.90;66.40
67557;DHT22;54387;53.526;49.300;2023-07-16T00:36:46;16.90;66.30
67557;DHT22;54387;53.526;49.300;2023-07-16T00:39:12;17.00;66.30
67557;DHT22;54387;53.526;49.300;2023-07-16T00:41:38;16.90;66.30
67557;DHT22;54387;53.526;49.300;2023-07-16T00:44:06;17.00;66.20
67557;DHT22;54387;53.526;49.300;2023-07-16T00:46:33;17.00;66.20
67557;DHT22;54387;53.526;49.300;2023-07-16T00:48:59;17.10;66.70
67557;DHT22;54387;53.526;49.300;2023-07-16T00:51:26;17.10;66.10
67557;DHT22;54387;53.526;49.300;2023-07-16T00:53:52;17.20;66.10
67557;DHT22;54387;53.526;49.300;2023-07-16T00:56:19;17.20;66.00
67557;DHT22;54387;53.526;49.300;2023-07-16T00:58:45;17.20;65.90
67557;DHT22;54387;53.526;49.300;2023-07-16T01:01:12;17.30;65.90
67557;DHT22;54387;53.526;49.300;2023-07-16T01:03:38;17.30;65.80
67557;DHT22;54387;53.526;49.300;2023-07-16T01:06:14;17.30;65.80
67557;DHT22;54387;53.526;49.300;2023-07-16T01:11:21;17.40;65.80
67557;DHT22;54387;53.526;49.300;2023-07-16T01:13:48;17.40;65.80
67557;DHT22;54387;53.526;49.300;2023-07-16T01:16:23;17.50;65.70
67557;DHT22;54387;53.526;49.300;2023-07-16T01:18:50;17.50;65.50
67557;DHT22;54387;53.526;49.300;2023-07-16T01:21:20;17.60;65.50
67557;DHT22;54387;53.526;49.300;2023-07-16T01:31:51;17.80;64.90
67557;DHT22;54387;53.526;49.300;2023-07-16T01:34:17;17.80;64.80
67557;DHT22;54387;53.526;49.300;2023-07-16T01:36:46;17.90;64.70
67557;DHT22;54387;53.526;49.300;2023-07-16T01:39:14;17.90;64.60
67557;DHT22;54387;53.526;49.300;2023-07-16T01:41:40;18.00;64.50
67557;DHT22;54387;53.526;49.300;2023-07-16T01:44:06;18.00;64.40
67557;DHT22;54387;53.526;49.300;2023-07-16T01:46:33;18.00;64.40
67557;DHT22;54387;53.526;49.300;2023-07-16T01:48:59;18.00;64.30
67557;DHT22;54387;53.526;49.300;2023-07-16T01:51:25;18.00;64.30
67557;DHT22;54387;53.526;49.300;2023-07-16T01:53:51;18.10;64.40
67557;DHT22;54387;53.526;49.300;2023-07-16T01:56:18;18.10;64.40
67557;DHT22;54387;53.526;49.300;2023-07-16T01:58:44;18.20;64.20
67557;DHT22;54387;53.526;49.300;2023-07-16T02:01:10;18.20;64.20
67557;DHT22;54387;53.526;49.300;2023-07-16T02:03:36;18.20;64.10
67557;DHT22;54387;53.526;49.300;2023-07-16T02:06:02;18.20;64.10
67557;DHT22;54387;53.526;49.300;2023-07-16T02:08:28;18.30;64.10
67557;DHT22;54387;53.526;49.300;2023-07-16T02:10:54;18.30;64.10
67557;DHT22;54387;53.526;49.300;2023-07-16T02:13:21;18.30;64.10
67557;DHT22;54387;53.526;49.300;2023-07-16T02:15:47;18.30;64.00
67557;DHT22;54387;53.526;49.300;2023-07-16T02:18:14;18.30;64.00
67557;DHT22;54387;53.526;49.300;2023-07-16T02:20:40;18.40;64.00
67557;DHT22;54387;53.526;49.300;2023-07-16T02:23:06;18.40;63.80
67557;DHT22;54387;53.526;49.300;2023-07-16T02:25:32;18.50;63.70
67557;DHT22;54387;53.526;49.300;2023-07-16T02:27:59;18.60;63.60
67557;DHT22;54387;53.526;49.300;2023-07-16T02:30:25;18.60;63.50
67557;DHT22;54387;53.526;49.300;2023-07-16T02:32:51;18.60;63.50
67557;DHT22;54387;53.526;49.300;2023-07-16T02:35:17;18.70;63.30
67557;DHT22;54387;53.526;49.300;2023-07-16T02:37:44;18.80;63.20
67557;DHT22;54387;53.526;49.300;2023-07-16T02:40:10;18.90;62.90
67557;DHT22;54387;53.526;49.300;2023-07-16T02:42:36;19.00;62.70
67557;DHT22;54387;53.526;49.300;2023-07-16T02:45:03;19.00;62.50
67557;DHT22;54387;53.526;49.300;2023-07-16T02:47:29;19.00;62.50
67557;DHT22;54387;53.526;49.300;2023-07-16T02:49:55;18.90;62.40
67557;DHT22;54387;53.526;49.300;2023-07-16T02:52:21;18.90;62.40
67557;DHT22;54387;53.526;49.300;2023-07-16T02:54:48;18.90;62.40
67557;DHT22;54387;53.526;49.300;2023-07-16T02:57:14;19.00;62.30
67557;DHT22;54387;53.526;49.300;2023-07-16T02:59:40;19.00;62.20
67557;DHT22;54387;53.526;49.300;2023-07-16T03:02:06;19.10;62.10
67557;DHT22;54387;53.526;49.300;2023-07-16T03:04:32;19.10;62.00
67557;DHT22;54387;53.526;49.300;2023-07-16T03:06:58;19.10;61.90
67557;DHT22;54387;53.526;49.300;2023-07-16T03:09:24;19.10;61.90
67557;DHT22;54387;53.526;49.300;2023-07-16T03:11:51;19.10;61.90
67557;DHT22;54387;53.526;49.300;2023-07-16T03:14:17;19.10;61.80
67557;DHT22;54387;53.526;49.300;2023-07-16T03:16:43;19.20;61.70
67557;DHT22;54387;53.526;49.300;2023-07-16T03:19:09;19.20;61.70
67557;DHT22;54387;53.526;49.300;2023-07-16T03:21:37;19.20;61.50
67557;DHT22;54387;53.526;49.300;2023-07-16T03:24:04;19.30;61.40
67557;DHT22;54387;53.526;49.300;2023-07-16T03:26:30;19.30;61.20
67557;DHT22;54387;53.526;49.300;2023-07-16T03:28:56;19.30;61.10
67557;DHT22;54387;53.526;49.300;2023-07-16T03:31:23;19.30;61.10
67557;DHT22;54387;53.526;49.300;2023-07-16T03:33:49;19.20;61.10
67557;DHT22;54387;53.526;49.300;2023-07-16T03:36:15;19.20;61.10
67557;DHT22;54387;53.526;49.300;2023-07-16T03:38:41;19.30;61.10
67557;DHT22;54387;53.526;49.300;2023-07-16T03:41:07;19.20;60.80
67557;DHT22;54387;53.526;49.300;2023-07-16T03:43:34;19.20;60.90
67557;DHT22;54387;53.526;49.300;2023-07-16T03:46:00;19.20;60.90
67557;DHT22;54387;53.526;49.300;2023-07-16T03:48:26;19.20;60.90
67557;DHT22;54387;53.526;49.300;2023-07-16T03:50:52;19.40;60.90
67557;DHT22;54387;53.526;49.300;2023-07-16T03:53:18;19.50;60.70
67557;DHT22;54387;53.526;49.300;2023-07-16T03:55:44;19.60;60.30
67557;DHT22;54387;53.526;49.300;2023-07-16T03:58:11;19.60;60.00
67557;DHT22;54387;53.526;49.300;2023-07-16T04:00:37;19.60;59.90
67557;DHT22;54387;53.526;49.300;2023-07-16T04:03:03;19.60;60.00
67557;DHT22;54387;53.526;49.300;2023-07-16T04:05:29;19.70;59.80
67557;DHT22;54387;53.526;49.300;2023-07-16T04:07:55;19.60;59.30
67557;DHT22;54387;53.526;49.300;2023-07-16T04:10:21;19.50;59.70
67557;DHT22;54387;53.526;49.300;2023-07-16T04:12:48;19.60;60.00
67557;DHT22;54387;53.526;49.300;2023-07-16T04:15:14;19.70;59.60
67557;DHT22;54387;53.526;49.300;2023-07-16T04:17:40;19.90;59.40
67557;DHT22;54387;53.526;49.300;2023-07-16T04:20:07;20.00;59.20
67557;DHT22;54387;53.526;49.300;2023-07-16T04:22:36;20.10;58.80
67557;DHT22;54387;53.526;49.300;2023-07-16T04:25:03;20.20;58.30
67557;DHT22;54387;53.526;49.300;2023-07-16T04:27:29;20.30;58.20
67557;DHT22;54387;53.526;49.300;2023-07-16T04:29:56;20.40;58.10
67557;DHT22;54387;53.526;49.300;2023-07-16T04:32:22;20.50;57.40
67557;DHT22;54387;53.526;49.300;2023-07-16T04:34:48;20.60;57.20
67557;DHT22;54387;53.526;49.300;2023-07-16T04:37:14;20.70;56.70
67557;DHT22;54387;53.526;49.300;2023-07-16T04:39:41;20.70;56.60
67557;DHT22;54387;53.526;49.300;2023-07-16T04:42:07;20.70;56.60
67557;DHT22;54387;53.526;49.300;2023-07-16T04:44:33;20.80;56.40
67557;DHT22;54387;53.526;49.300;2023-07-16T04:46:59;20.90;56.00
67557;DHT22;54387;53.526;49.300;2023-07-16T04:49:25;21.00;55.80
67557;DHT22;54387;53.526;49.300;2023-07-16T04:51:52;21.10;55.40
67557;DHT22;54387;53.526;49.300;2023-07-16T04:54:18;21.20;55.50
67557;DHT22;54387;53.526;49.300;2023-07-16T04:56:44;21.30;54.90
67557;DHT22;54387;53.526;49.300;2023-07-16T04:59:10;21.30;54.70
67557;DHT22;54387;53.526;49.300;2023-07-16T05:01:36;21.40;54.80
67557;DHT22;54387;53.526;49.300;2023-07-16T05:04:03;21.30;54.40
67557;DHT22;54387;53.526;49.300;2023-07-16T05:06:29;21.30;54.70
67557;DHT22;54387;53.526;49.300;2023-07-16T05:08:55;21.20;54.70
67557;DHT22;54387;53.526;49.300;2023-07-16T05:11:21;21.30;55.00
67557;DHT22;54387;53.526;49.300;2023-07-16T05:13:47;21.30;54.80
67557;DHT22;54387;53.526;49.300;2023-07-16T05:16:13;21.40;54.60
67557;DHT22;54387;53.526;49.300;2023-07-16T05:18:40;21.50;54.40
67557;DHT22;54387;53.526;49.300;2023-07-16T05:21:06;21.50;54.20
67557;DHT22;54387;53.526;49.300;2023-07-16T05:23:32;21.60;53.90
67557;DHT22;54387;53.526;49.300;2023-07-16T05:25:58;21.60;53.90
67557;DHT22;54387;53.526;49.300;2023-07-16T05:28:25;21.70;53.80
67557;DHT22;54387;53.526;49.300;2023-07-16T05:30:59;21.60;53.30
67557;DHT22;54387;53.526;49.300;2023-07-16T05:33:25;21.50;53.60
67557;DHT22;54387;53.526;49.300;2023-07-16T05:35:51;21.50;53.80
67557;DHT22;54387;53.526;49.300;2023-07-16T05:38:17;21.40;53.60
67557;DHT22;54387;53.526;49.300;2023-07-16T05:40:44;21.30;54.10
67557;DHT22;54387;53.526;49.300;2023-07-16T05:43:10;21.30;54.50
67557;DHT22;54387;53.526;49.300;2023-07-16T05:45:37;21.30;54.70
67557;DHT22;54387;53.526;49.300;2023-07-16T05:48:03;21.30;54.70
67557;DHT22;54387;53.526;49.300;2023-07-16T05:50:29;21.30;54.60
67557;DHT22;54387;53.526;49.300;2023-07-16T05:52:55;21.30;54.60
67557;DHT22;54387;53.526;49.300;2023-07-16T05:55:22;21.30;54.50
67557;DHT22;54387;53.526;49.300;2023-07-16T05:57:48;21.30;54.10
67557;DHT22;54387;53.526;49.300;2023-07-16T06:00:14;21.20;54.00
67557;DHT22;54387;53.526;49.300;2023-07-16T06:02:40;21.20;54.40
67557;DHT22;54387;53.526;49.300;2023-07-16T06:05:07;21.20;54.60
67557;DHT22;54387;53.526;49.300;2023-07-16T06:07:33;21.30;54.50
67557;DHT22;54387;53.526;49.300;2023-07-16T06:09:59;21.40;54.30
67557;DHT22;54387;53.526;49.300;2023-07-16T06:12:25;21.50;54.30
67557;DHT22;54387;53.526;49.300;2023-07-16T06:14:51;21.50;54.00
67557;DHT22;54387;53.526;49.300;2023-07-16T06:17:18;21.40;53.60
67557;DHT22;54387;53.526;49.300;2023-07-16T06:19:44;21.30;53.80
67557;DHT22;54387;53.526;49.300;2023-07-16T06:22:11;21.30;53.60
67557;DHT22;54387;53.526;49.300;2023-07-16T06:24:37;21.30;53.70
67557;DHT22;54387;53.526;49.300;2023-07-16T06:27:04;21.30;53.60
67557;DHT22;54387;53.526;49.300;2023-07-16T06:29:30;21.20;53.80
67557;DHT22;54387;53.526;49.300;2023-07-16T06:31:57;21.10;53.80
67557;DHT22;54387;53.526;49.300;2023-07-16T06:34:24;21.20;54.30
67557;DHT22;54387;53.526;49.300;2023-07-16T06:36:51;21.30;54.10
67557;DHT22;54387;53.526;49.300;2023-07-16T06:39:17;21.50;53.20
67557;DHT22;54387;53.526;49.300;2023-07-16T06:41:43;21.80;52.90
67557;DHT22;54387;53.526;49.300;2023-07-16T06:44:09;22.00;51.50
67557;DHT22;54387;53.526;49.300;2023-07-16T06:46:36;22.10;50.90
67557;DHT22;54387;53.526;49.300;2023-07-16T06:49:02;22.10;50.70
67557;DHT22;54387;53.526;49.300;2023-07-16T06:51:28;22.20;50.10
67557;DHT22;54387;53.526;49.300;2023-07-16T06:53:57;22.20;50.10
67557;DHT22;54387;53.526;49.300;2023-07-16T06:56:23;22.20;50.20
67557;DHT22;54387;53.526;49.300;2023-07-16T06:58:49;22.40;50.20
67557;DHT22;54387;53.526;49.300;2023-07-16T07:01:15;22.60;49.40
67557;DHT22;54387;53.526;49.300;2023-07-16T07:03:41;22.60;49.00
67557;DHT22;54387;53.526;49.300;2023-07-16T07:06:07;22.60;49.00
67557;DHT22;54387;53.526;49.300;2023-07-16T07:08:37;22.70;49.00
67557;DHT22;54387;53.526;49.300;2023-07-16T07:11:04;22.80;48.40
67557;DHT22;54387;53.526;49.300;2023-07-16T07:13:30;22.70;48.30
67557;DHT22;54387;53.526;49.300;2023-07-16T07:15:56;22.80;48.10
67557;DHT22;54387;53.526;49.300;2023-07-16T07:18:22;22.70;47.70
67557;DHT22;54387;53.526;49.300;2023-07-16T07:20:49;22.60;47.80
67557;DHT22;54387;53.526;49.300;2023-07-16T07:23:15;22.60;48.00
67557;DHT22;54387;53.526;49.300;2023-07-16T07:25:42;22.50;48.00
67557;DHT22;54387;53.526;49.300;2023-07-16T07:28:08;22.40;48.10
67557;DHT22;54387;53.526;49.300;2023-07-16T07:30:34;22.40;48.70
67557;DHT22;54387;53.526;49.300;2023-07-16T07:33:00;22.30;48.40
67557;DHT22;54387;53.526;49.300;2023-07-16T07:35:26;22.30;48.60
67557;DHT22;54387;53.526;49.300;2023-07-16T07:37:53;22.20;48.70
67557;DHT22;54387;53.526;49.300;2023-07-16T07:40:19;22.10;49.00
67557;DHT22;54387;53.526;49.300;2023-07-16T07:42:45;22.00;49.40
67557;DHT22;54387;53.526;49.300;2023-07-16T07:45:12;22.00;49.50
67557;DHT22;54387;53.526;49.300;2023-07-16T07:47:38;22.00;49.40
67557;DHT22;54387;53.526;49.300;2023-07-16T07:50:05;22.00;49.20
67557;DHT22;54387;53.526;49.300;2023-07-16T07:52:31;22.00;49.40
67557;DHT22;54387;53.526;49.300;2023-07-16T07:54:57;22.00;49.30
67557;DHT22;54387;53.526;49.300;2023-07-16T07:57:24;22.00;49.20
67557;DHT22;54387;53.526;49.300;2023-07-16T07:59:50;22.10;49.00
67557;DHT22;54387;53.526;49.300;2023-07-16T08:02:22;22.00;48.90
67557;DHT22;54387;53.526;49.300;2023-07-16T08:04:56;22.00;49.30
67557;DHT22;54387;53.526;49.300;2023-07-16T08:07:22;22.10;49.00
67557;DHT22;54387;53.526;49.300;2023-07-16T08:09:49;22.20;48.60
67557;DHT22;54387;53.526;49.300;2023-07-16T08:12:15;22.20;48.50
67557;DHT22;54387;53.526;49.300;2023-07-16T08:14:42;22.30;48.20
67557;DHT22;54387;53.526;49.300;2023-07-16T08:17:08;22.30;48.30
67557;DHT22;54387;53.526;49.300;2023-07-16T08:19:34;22.30;47.90
67557;DHT22;54387;53.526;49.300;2023-07-16T08:22:00;22.30;47.90
67557;DHT22;54387;53.526;49.300;2023-07-16T08:24:26;22.40;48.00
67557;DHT22;54387;53.526;49.300;2023-07-16T08:26:53;22.60;47.50
67557;DHT22;54387;53.526;49.300;2023-07-16T08:29:19;22.80;47.40
67557;DHT22;54387;53.526;49.300;2023-07-16T08:31:45;22.90;46.70
67557;DHT22;54387;53.526;49.300;2023-07-16T08:34:11;22.90;46.70
67557;DHT22;54387;53.526;49.300;2023-07-16T08:36:37;22.90;46.80
67557;DHT22;54387;53.526;49.300;2023-07-16T08:39:04;22.90;46.70
67557;DHT22;54387;53.526;49.300;2023-07-16T08:41:31;23.00;46.40
67557;DHT22;54387;53.526;49.300;2023-07-16T08:43:57;22.90;46.00
67557;DHT22;54387;53.526;49.300;2023-07-16T08:46:24;22.90;46.40
67557;DHT22;54387;53.526;49.300;2023-07-16T08:48:51;22.90;46.50
67557;DHT22;54387;53.526;49.300;2023-07-16T08:51:18;23.00;46.30
67557;DHT22;54387;53.526;49.300;2023-07-16T08:53:47;23.20;45.90
67557;DHT22;54387;53.526;49.300;2023-07-16T08:56:13;23.40;45.50
67557;DHT22;54387;53.526;49.300;2023-07-16T08:58:40;23.60;45.20
67557;DHT22;54387;53.526;49.300;2023-07-16T09:01:08;23.90;45.00
67557;DHT22;54387;53.526;49.300;2023-07-16T09:03:36;24.20;44.10
67557;DHT22;54387;53.526;49.300;2023-07-16T09:06:04;24.30;43.50
67557;DHT22;54387;53.526;49.300;2023-07-16T09:08:31;24.30;43.10
67557;DHT22;54387;53.526;49.300;2023-07-16T09:10:58;24.20;43.20
67557;DHT22;54387;53.526;49.300;2023-07-16T09:13:24;24.10;43.30
67557;DHT22;54387;53.526;49.300;2023-07-16T09:15:55;24.00;43.60
67557;DHT22;54387;53.526;49.300;2023-07-16T09:18:22;24.00;43.80
67557;DHT22;54387;53.526;49.300;2023-07-16T09:20:59;23.90;43.70
67557;DHT22;54387;53.526;49.300;2023-07-16T09:23:30;23.90;43.80
67557;DHT22;54387;53.526;49.300;2023-07-16T09:25:57;23.80;43.90
67557;DHT22;54387;53.526;49.300;2023-07-16T09:28:23;23.60;44.10
67557;DHT22;54387;53.526;49.300;2023-07-16T09:30:51;23.40;44.60
67557;DHT22;54387;53.526;49.300;2023-07-16T09:33:19;23.30;45.00
67557;DHT22;54387;53.526;49.300;2023-07-16T09:35:52;23.40;45.00
67557;DHT22;54387;53.526;49.300;2023-07-16T09:38:18;23.60;44.90
67557;DHT22;54387;53.526;49.300;2023-07-16T09:40:45;23.90;44.10
67557;DHT22;54387;53.526;49.300;2023-07-16T09:43:12;24.10;44.70
67557;DHT22;54387;53.526;49.300;2023-07-16T09:45:38;24.40;43.10
67557;DHT22;54387;53.526;49.300;2023-07-16T09:48:05;24.50;42.90
67557;DHT22;54387;53.526;49.300;2023-07-16T09:50:35;24.60;42.90
67557;DHT22;54387;53.526;49.300;2023-07-16T09:53:05;25.00;42.30
67557;DHT22;54387;53.526;49.300;2023-07-16T09:55:35;25.10;41.70
67557;DHT22;54387;53.526;49.300;2023-07-16T09:58:03;25.00;41.30
67557;DHT22;54387;53.526;49.300;2023-07-16T10:00:32;24.80;41.80
67557;DHT22;54387;53.526;49.300;2023-07-16T10:03:00;24.70;42.30
67557;DHT22;54387;53.526;49.300;2023-07-16T10:05:28;24.60;42.30
67557;DHT22;54387;53.526;49.300;2023-07-16T10:07:58;24.50;42.70
67557;DHT22;54387;53.526;49.300;2023-07-16T10:10:46;24.50;42.80
67557;DHT22;54387;53.526;49.300;2023-07-16T10:13:17;24.50;42.90
67557;DHT22;54387;53.526;49.300;2023-07-16T10:15:58;24.40;43.10
67557;DHT22;54387;53.526;49.300;2023-07-16T10:18:32;24.20;43.10
67557;DHT22;54387;53.526;49.300;2023-07-16T10:21:07;24.00;43.60
67557;DHT22;54387;53.526;49.300;2023-07-16T10:23:42;23.90;44.00
67557;DHT22;54387;53.526;49.300;2023-07-16T10:26:14;23.60;44.50
67557;DHT22;54387;53.526;49.300;2023-07-16T10:28:41;23.40;44.90
67557;DHT22;54387;53.526;49.300;2023-07-16T10:31:26;23.30;45.20
67557;DHT22;54387;53.526;49.300;2023-07-16T10:34:03;23.40;44.80
67557;DHT22;54387;53.526;49.300;2023-07-16T10:36:40;23.50;44.70
67557;DHT22;54387;53.526;49.300;2023-07-16T10:39:07;23.70;44.70
67557;DHT22;54387;53.526;49.300;2023-07-16T10:41:33;23.80;44.80
67557;DHT22;54387;53.526;49.300;2023-07-16T10:44:00;23.90;44.80
67557;DHT22;54387;53.526;49.300;2023-07-16T10:46:30;24.10;44.70
67557;DHT22;54387;53.526;49.300;2023-07-16T10:48:56;24.20;44.20
67557;DHT22;54387;53.526;49.300;2023-07-16T10:51:26;24.10;44.10
67557;DHT22;54387;53.526;49.300;2023-07-16T10:53:55;24.00;44.10
67557;DHT22;54387;53.526;49.300;2023-07-16T10:56:22;23.90;44.50
67557;DHT22;54387;53.526;49.300;2023-07-16T10:58:49;23.80;44.40
67557;DHT22;54387;53.526;49.300;2023-07-16T11:01:15;23.80;44.20
67557;DHT22;54387;53.526;49.300;2023-07-16T11:03:41;23.80;44.40
67557;DHT22;54387;53.526;49.300;2023-07-16T11:06:11;24.00;44.30
67557;DHT22;54387;53.526;49.300;2023-07-16T11:08:41;24.10;43.90
67557;DHT22;54387;53.526;49.300;2023-07-16T11:11:07;24.30;43.80
67557;DHT22;54387;53.526;49.300;2023-07-16T11:13:34;24.50;43.30
67557;DHT22;54387;53.526;49.300;2023-07-16T11:16:07;24.70;43.10
67557;DHT22;54387;53.526;49.300;2023-07-16T11:18:33;24.70;43.20
67557;DHT22;54387;53.526;49.300;2023-07-16T11:21:00;24.60;43.00
67557;DHT22;54387;53.526;49.300;2023-07-16T11:23:26;24.50;43.30
67557;DHT22;54387;53.526;49.300;2023-07-16T11:25:52;24.30;43.60
67557;DHT22;54387;53.526;49.300;2023-07-16T11:28:19;24.10;44.10
67557;DHT22;54387;53.526;49.300;2023-07-16T11:30:45;23.90;44.60
67557;DHT22;54387;53.526;49.300;2023-07-16T11:33:11;23.80;45.20
67557;DHT22;54387;53.526;49.300;2023-07-16T11:35:38;23.70;45.50
67557;DHT22;54387;53.526;49.300;2023-07-16T11:38:05;23.70;45.50
67557;DHT22;54387;53.526;49.300;2023-07-16T11:40:34;23.70;45.70
67557;DHT22;54387;53.526;49.300;2023-07-16T11:43:11;23.60;45.70
67557;DHT22;54387;53.526;49.300;2023-07-16T11:45:38;23.60;46.00
67557;DHT22;54387;53.526;49.300;2023-07-16T11:48:05;23.50;46.00
67557;DHT22;54387;53.526;49.300;2023-07-16T11:50:31;23.40;46.30
67557;DHT22;54387;53.526;49.300;2023-07-16T11:53:01;23.30;46.20
67557;DHT22;54387;53.526;49.300;2023-07-16T11:55:27;23.40;46.30
67557;DHT22;54387;53.526;49.300;2023-07-16T11:57:54;23.50;46.00
67557;DHT22;54387;53.526;49.300;2023-07-16T12:00:23;23.50;45.80
67557;DHT22;54387;53.526;49.300;2023-07-16T12:02:49;23.60;45.70
67557;DHT22;54387;53.526;49.300;2023-07-16T12:05:19;23.50;45.60
67557;DHT22;54387;53.526;49.300;2023-07-16T12:07:45;23.50;45.80
67557;DHT22;54387;53.526;49.300;2023-07-16T12:10:11;23.60;46.00
67557;DHT22;54387;53.526;49.300;2023-07-16T12:12:38;23.50;46.10
67557;DHT22;54387;53.526;49.300;2023-07-16T12:15:08;23.60;46.10
67557;DHT22;54387;53.526;49.300;2023-07-16T12:17:34;23.60;46.40
67557;DHT22;54387;53.526;49.300;2023-07-16T12:20:01;23.50;47.00
67557;DHT22;54387;53.526;49.300;2023-07-16T12:22:29;23.30;47.70
67557;DHT22;54387;53.526;49.300;2023-07-16T12:24:55;23.20;49.60
67557;DHT22;54387;53.526;49.300;2023-07-16T12:27:22;23.10;49.50
67557;DHT22;54387;53.526;49.300;2023-07-16T12:29:48;22.90;50.30
67557;DHT22;54387;53.526;49.300;2023-07-16T12:32:14;22.70;50.90
67557;DHT22;54387;53.526;49.300;2023-07-16T12:34:40;22.50;51.50
67557;DHT22;54387;53.526;49.300;2023-07-16T12:37:07;22.30;52.00
67557;DHT22;54387;53.526;49.300;2023-07-16T12:39:33;22.30;52.40
67557;DHT22;54387;53.526;49.300;2023-07-16T12:41:59;22.20;52.90
67557;DHT22;54387;53.526;49.300;2023-07-16T12:44:25;22.10;53.50
67557;DHT22;54387;53.526;49.300;2023-07-16T12:46:51;22.10;53.90
67557;DHT22;54387;53.526;49.300;2023-07-16T12:49:19;22.10;54.10
67557;DHT22;54387;53.526;49.300;2023-07-16T12:51:45;22.10;54.30
67557;DHT22;54387;53.526;49.300;2023-07-16T12:54:11;22.10;54.40
67557;DHT22;54387;53.526;49.300;2023-07-16T12:56:37;22.10;54.30
67557;DHT22;54387;53.526;49.300;2023-07-16T12:59:04;22.10;54.40
67557;DHT22;54387;53.526;49.300;2023-07-16T13:01:30;22.00;54.70
67557;DHT22;54387;53.526;49.300;2023-07-16T13:03:57;22.10;54.70
67557;DHT22;54387;53.526;49.300;2023-07-16T13:06:23;22.10;54.70
67557;DHT22;54387;53.526;49.300;2023-07-16T13:08:49;22.10;54.90
67557;DHT22;54387;53.526;49.300;2023-07-16T13:11:15;22.10;55.10
67557;DHT22;54387;53.526;49.300;2023-07-16T13:13:41;22.20;54.70
67557;DHT22;54387;53.526;49.300;2023-07-16T13:16:09;22.20;54.00
67557;DHT22;54387;53.526;49.300;2023-07-16T13:18:35;22.10;54.00
67557;DHT22;54387;53.526;49.300;2023-07-16T13:21:02;22.10;53.90
67557;DHT22;54387;53.526;49.300;2023-07-16T13:23:29;22.10;54.10
67557;DHT22;54387;53.526;49.300;2023-07-16T13:25:55;22.00;54.30
67557;DHT22;54387;53.526;49.300;2023-07-16T13:28:22;22.00;54.50
67557;DHT22;54387;53.526;49.300;2023-07-16T13:30:50;22.00;54.70
67557;DHT22;54387;53.526;49.300;2023-07-16T13:33:16;22.00;54.90
67557;DHT22;54387;53.526;49.300;2023-07-16T13:35:42;21.90;55.20
67557;DHT22;54387;53.526;49.300;2023-07-16T13:38:12;21.70;55.50
67557;DHT22;54387;53.526;49.300;2023-07-16T13:40:38;21.60;56.10
67557;DHT22;54387;53.526;49.300;2023-07-16T13:43:04;21.40;56.60
67557;DHT22;54387;53.526;49.300;2023-07-16T13:45:31;21.30;57.10
67557;DHT22;54387;53.526;49.300;2023-07-16T13:47:59;21.30;57.70
67557;DHT22;54387;53.526;49.300;2023-07-16T13:50:25;21.30;57.90
67557;DHT22;54387;53.526;49.300;2023-07-16T13:52:51;21.30;58.00
67557;DHT22;54387;53.526;49.300;2023-07-16T13:55:18;21.30;58.10
67557;DHT22;54387;53.526;49.300;2023-07-16T13:57:44;21.30;58.20
67557;DHT22;54387;53.526;49.300;2023-07-16T14:00:12;21.40;58.10
67557;DHT22;54387;53.526;49.300;2023-07-16T14:02:38;21.40;57.90
67557;DHT22;54387;53.526;49.300;2023-07-16T14:05:04;21.40;57.70
67557;DHT22;54387;53.526;49.300;2023-07-16T14:07:31;21.40;57.90
67557;DHT22;54387;53.526;49.300;2023-07-16T14:09:57;21.30;58.00
67557;DHT22;54387;53.526;49.300;2023-07-16T14:12:23;21.20;58.10
67557;DHT22;54387;53.526;49.300;2023-07-16T14:14:49;21.30;58.50
67557;DHT22;54387;53.526;49.300;2023-07-16T14:17:15;21.30;58.20
67557;DHT22;54387;53.526;49.300;2023-07-16T14:19:41;21.40;58.00
67557;DHT22;54387;53.526;49.300;2023-07-16T14:22:07;21.60;57.60
67557;DHT22;54387;53.526;49.300;2023-07-16T14:24:37;21.80;57.30
67557;DHT22;54387;53.526;49.300;2023-07-16T14:27:04;22.10;56.50
67557;DHT22;54387;53.526;49.300;2023-07-16T14:29:32;22.40;54.80
67557;DHT22;54387;53.526;49.300;2023-07-16T14:31:58;22.60;53.40
67557;DHT22;54387;53.526;49.300;2023-07-16T14:34:28;22.70;52.70
67557;DHT22;54387;53.526;49.300;2023-07-16T14:36:55;22.60;52.30
67557;DHT22;54387;53.526;49.300;2023-07-16T14:39:21;22.60;52.50
67557;DHT22;54387;53.526;49.300;2023-07-16T14:41:47;22.60;52.30
67557;DHT22;54387;53.526;49.300;2023-07-16T14:44:13;22.50;52.30
67557;DHT22;54387;53.526;49.300;2023-07-16T14:46:39;22.40;52.20
67557;DHT22;54387;53.526;49.300;2023-07-16T14:49:06;22.30;52.40
67557;DHT22;54387;53.526;49.300;2023-07-16T14:51:33;22.30;52.70
67557;DHT22;54387;53.526;49.300;2023-07-16T14:54:09;22.30;52.70
67557;DHT22;54387;53.526;49.300;2023-07-16T14:56:35;22.20;52.40
67557;DHT22;54387;53.526;49.300;2023-07-16T14:59:01;22.10;52.60
67557;DHT22;54387;53.526;49.300;2023-07-16T15:01:28;22.00;52.80
67557;DHT22;54387;53.526;49.300;2023-07-16T15:03:54;22.00;53.30
67557;DHT22;54387;53.526;49.300;2023-07-16T15:06:20;22.00;54.00
67557;DHT22;54387;53.526;49.300;2023-07-16T15:08:46;21.90;54.60
67557;DHT22;54387;53.526;49.300;2023-07-16T15:11:14;21.90;55.20
67557;DHT22;54387;53.526;49.300;2023-07-16T15:13:41;21.90;55.20
67557;DHT22;54387;53.526;49.300;2023-07-16T15:16:07;21.90;55.30
67557;DHT22;54387;53.526;49.300;2023-07-16T15:18:34;22.10;55.30
67557;DHT22;54387;53.526;49.300;2023-07-16T15:21:01;22.30;55.00
67557;DHT22;54387;53.526;49.300;2023-07-16T15:23:27;22.30;54.30